ロンドン/ヒースロー の空港の天気 - METARとTAF

ロンドン・ヒースロー空港 ( EGLL / LHR ) - イギリス ロンドン
飛行場実況気象(Metar)
観測時間05/30 20:20 BST (05/30 19:20 UTC)
風向・風速東 6m/s
視程10km以上
天気現象
なし
気温20℃
湿度32%
気圧1021hPa
METAREGLL 301920Z AUTO 10012KT 9999 NCD 20/03 Q1021 NOSIG
過去の天気等 Google飛行場航空写真 Wunderground天気予報

過去48時間のMETAR

飛行場予報(TAF)
発表時間: 5/30 17:54 BST (5/30 16:54 UTC)
予報対象時間: 30日19時 BST ~ 1日1時 BST
風向・風速東北東 4m/s
視程10km以上
なし
TAF EGLL 301654Z 3018/3124 07008KT CAVOK